Terminal Aerodrome Forecast
Issued by NWS

Home | Current Version | Previous Version | Text Only | Print | Product List | Glossary On
Versions: 1 2 3 4 5 6 7 8 9 10 11 12 13 14 15 16 17 18 19 20 21 22 23 24 25
000
FTUS41 KBUF 230538
TAFJHW
TAF
KJHW 230538Z 2306/2406 32004KT P6SM SKC
     FM230900 VRB03KT P6SM SKC
     FM231400 25005KT P6SM SKC
     FM232000 27010KT P6SM FEW250
     FM232300 27006KT P6SM SKC
     FM240400 22004KT P6SM FEW250
      AMD LTD TO CLD VIS AND WIND=

USA.gov is the U.S. government's official web portal to all federal, state and local government web resources and services.